aviador You're here:

LFPG Decoded Metar

PARIS CHARLES DE GAULLE in FRANCE
Report Time2018-05-28 07:30:00
UTC Time2018-05-28 07:57:20
Flight Rules vfr VFR
Wind140° at 04 kt
W.Decomp.*RWY 09: 2.5 kt HW 3.1 kt RCW
RWY 08: 1.9 kt HW 3.5 kt RCW
W.Rank140° ranks 25
Current wind is below 140° avg. (6.4)
Visibility9999 m
Phenomena:N/A
Clouds:N/A
Expected CloudBase > 2,400 ft AGL from Temp-Dew spread
CeilingNone
Temp21°C (ISA +7)
Dew Point15°C (69% RH)
QNH1017 hPa
Density Alt1,234 ft
Elevation358 ft
Report Wrong Elevation
Raw Report
LFPG 280730Z 14004KT 100V200 CAVOK 21/15 Q1017 NOSIG=

Extra information for LFPG:More info

Metar Taf Metar & Taf Last 4 Metars F.Rules Stats Wind Profile Meteogram Temp Stats Airport Information Weather charts Add Link Nearby VenuesMetar ALERT Operation Metar Decoded Social comments